Time;durP1;ratioP1;P1;durP2;ratioP2;P2;SDS_P1;SDS_P2;PMS_P1;PMS_P2;Temp;Humidity;BMP_temperature;BMP_pressure;BME280_temperature;BME280_humidity;BME280_pressure;Samples;Min_cycle;Max_cycle;Signal;HPM_P1;HPM_P2
2021/03/27 00:00:18;;;;;;;43.90;25.90;;;;;;;;;;5057196;28;20078;-86
2021/03/27 00:02:44;;;;;;;;;;;;;;;;;;5057972;28;20052;-86
2021/03/27 00:05:17;;;;;;;48.80;27.23;;;;;;;;;;5057467;28;19904;-86
2021/03/27 00:10:49;;;;;;;49.40;26.73;;;;;;;;;;5057318;28;20036;-86
2021/03/27 00:13:18;;;;;;;51.75;28.90;;;;;;;;;;5057577;28;20036;-86
2021/03/27 00:15:52;;;;;;;59.45;32.15;;;;;;;;;;5057481;28;20072;-86
2021/03/27 00:18:27;;;;;;;53.60;30.33;;;;;;;;;;5072812;28;20040;-85
2021/03/27 00:21:02;;;;;;;46.00;28.02;;;;;;;;;;5073147;28;20048;-86
2021/03/27 00:23:33;;;;;;;48.92;27.38;;;;;;;;;;5057248;28;20036;-86
2021/03/27 00:26:06;;;;;;;46.05;27.15;;;;;;;;;;5057562;28;20055;-87
2021/03/27 00:28:44;;;;;;;44.90;26.85;;;;;;;;;;5055656;28;20021;-85
2021/03/27 00:31:10;;;;;;;47.13;26.13;;;;;;;;;;5037112;28;20026;-85
2021/03/27 00:33:37;;;;;;;45.33;26.30;;;;;;;;;;5037189;28;20044;-85
2021/03/27 00:36:03;;;;;;;46.10;27.15;;;;;;;;;;5037183;28;20404;-85
2021/03/27 00:38:34;;;;;;;48.50;28.02;;;;;;;;;;5037272;28;20029;-85
2021/03/27 00:41:00;;;;;;;52.08;30.50;;;;;;;;;;5036930;28;20045;-85
2021/03/27 00:43:37;;;;;;;48.00;28.08;;;;;;;;;;5037279;28;20029;-85
2021/03/27 00:46:05;;;;;;;51.63;28.38;;;;;;;;;;5037225;28;20040;-85
2021/03/27 00:48:31;;;;;;;44.92;27.40;;;;;;;;;;5037433;28;20800;-86
2021/03/27 00:51:20;;;;;;;46.88;28.10;;;;;;;;;;5036980;28;20029;-85
2021/03/27 00:53:51;;;;;;;43.92;27.85;;;;;;;;;;5015584;28;20137;-85
2021/03/27 00:56:20;;;;;;;47.00;29.38;;;;;;;;;;5015761;28;20117;-85
2021/03/27 00:58:57;;;;;;;48.13;29.20;;;;;;;;;;5015411;28;20030;-85
2021/03/27 01:01:24;;;;;;;51.65;29.98;;;;;;;;;;5015555;28;20436;-85
2021/03/27 01:03:54;;;;;;;56.65;31.75;;;;;;;;;;4999079;28;20034;-86
2021/03/27 01:09:50;;;;;;;51.45;29.98;;;;;;;;;;5016005;28;20024;-88
2021/03/27 01:12:18;;;;;;;53.28;30.30;;;;;;;;;;4921676;29;20380;-87
2021/03/27 01:14:48;;;;;;;53.05;31.45;;;;;;;;;;4922583;29;20036;-87
2021/03/27 01:17:16;;;;;;;56.92;31.75;;;;;;;;;;4922393;28;20063;-87
2021/03/27 01:19:45;;;;;;;63.78;34.28;;;;;;;;;;4922586;29;20103;-88
2021/03/27 01:22:12;;;;;;;62.10;34.22;;;;;;;;;;4922346;29;20050;-88
2021/03/27 01:24:38;;;;;;;59.65;34.25;;;;;;;;;;4922499;29;20032;-88
2021/03/27 01:27:14;;;;;;;58.45;33.22;;;;;;;;;;4922530;29;20187;-88
2021/03/27 01:29:48;;;;;;;58.53;33.15;;;;;;;;;;4923708;29;20029;-88
2021/03/27 01:32:14;;;;;;;56.90;31.75;;;;;;;;;;4941430;29;20031;-88
2021/03/27 01:34:40;;;;;;;55.33;30.83;;;;;;;;;;4925357;29;20123;-86
2021/03/27 01:37:12;;;;;;;54.55;31.10;;;;;;;;;;4941283;29;20047;-89
2021/03/27 01:39:41;;;;;;;55.53;31.27;;;;;;;;;;4940991;29;20135;-87
2021/03/27 01:42:15;;;;;;;53.63;30.23;;;;;;;;;;4941148;29;20099;-87
2021/03/27 01:44:47;;;;;;;52.30;29.98;;;;;;;;;;4941177;29;20030;-88
2021/03/27 01:47:19;;;;;;;56.88;31.40;;;;;;;;;;4941269;29;20052;-87
2021/03/27 01:50:04;;;;;;;52.35;31.48;;;;;;;;;;5020735;28;20052;-85
2021/03/27 01:52:36;;;;;;;55.90;32.70;;;;;;;;;;5039958;28;20370;-86
2021/03/27 01:55:02;;;;;;;58.97;33.10;;;;;;;;;;5038851;28;20367;-86
2021/03/27 01:57:31;;;;;;;61.22;35.33;;;;;;;;;;5039795;28;20030;-87
2021/03/27 01:59:59;;;;;;;54.22;32.60;;;;;;;;;;5040001;28;20033;-86
2021/03/27 02:02:36;;;;;;;59.88;34.90;;;;;;;;;;5038715;28;20021;-86
2021/03/27 02:05:10;;;;;;;58.95;33.42;;;;;;;;;;5040031;28;20022;-86
2021/03/27 02:07:44;;;;;;;54.17;31.75;;;;;;;;;;5038728;28;20319;-87
2021/03/27 02:10:26;;;;;;;56.33;32.10;;;;;;;;;;5039590;28;20037;-87
2021/03/27 02:12:58;;;;;;;53.13;31.33;;;;;;;;;;5040071;28;20045;-88
2021/03/27 02:15:33;;;;;;;60.83;33.25;;;;;;;;;;5039780;28;20034;-89
2021/03/27 02:18:01;;;;;;;58.33;33.10;;;;;;;;;;5038527;28;20068;-88
2021/03/27 02:20:33;;;;;;;58.97;32.60;;;;;;;;;;5039444;28;20033;-87
2021/03/27 02:23:26;;;;;;;61.80;33.42;;;;;;;;;;5038875;28;20025;-88
2021/03/27 02:26:05;;;;;;;57.70;31.85;;;;;;;;;;5017800;28;20409;-88
2021/03/27 02:28:43;;;;;;;64.25;35.25;;;;;;;;;;5017952;28;20033;-87
2021/03/27 02:31:18;;;;;;;67.72;37.75;;;;;;;;;;5001411;28;20062;-86
2021/03/27 02:33:50;;;;;;;63.00;35.83;;;;;;;;;;5017824;28;20022;-87
2021/03/27 02:36:49;;;;;;;59.05;34.53;;;;;;;;;;5017714;28;20031;-86
2021/03/27 02:39:50;;;;;;;59.47;33.10;;;;;;;;;;5017400;28;20044;-87
2021/03/27 02:42:19;;;;;;;58.30;32.92;;;;;;;;;;4920935;29;20124;-86
2021/03/27 02:44:52;;;;;;;60.58;34.72;;;;;;;;;;4921052;29;20052;-87
2021/03/27 02:47:18;;;;;;;61.97;34.03;;;;;;;;;;4920930;29;20028;-87
2021/03/27 02:49:44;;;;;;;65.07;36.13;;;;;;;;;;4920907;29;20042;-87
2021/03/27 02:52:22;;;;;;;62.88;36.42;;;;;;;;;;4920801;29;20330;-87
2021/03/27 02:54:54;;;;;;;65.15;36.00;;;;;;;;;;4920539;29;20040;-87
2021/03/27 02:57:22;;;;;;;63.10;35.60;;;;;;;;;;4920881;29;20048;-87
2021/03/27 02:59:55;;;;;;;57.88;35.47;;;;;;;;;;4920617;29;20059;-86
2021/03/27 03:02:30;;;;;;;63.60;35.47;;;;;;;;;;4923808;29;20040;-87
2021/03/27 03:05:05;;;;;;;55.92;32.00;;;;;;;;;;4939549;29;20243;-86
2021/03/27 03:07:31;;;;;;;61.08;34.85;;;;;;;;;;4939577;29;20023;-86
2021/03/27 03:10:05;;;;;;;61.72;35.60;;;;;;;;;;4939149;29;20046;-86
2021/03/27 03:12:39;;;;;;;63.15;36.17;;;;;;;;;;4923478;29;20510;-87
2021/03/27 03:15:18;;;;;;;67.40;36.22;;;;;;;;;;4942927;28;20054;-88
2021/03/27 03:17:47;;;;;;;64.13;37.13;;;;;;;;;;5038373;28;20453;-87
2021/03/27 03:20:19;;;;;;;69.43;38.13;;;;;;;;;;5038636;28;20071;-88
2021/03/27 03:22:57;;;;;;;71.45;38.85;;;;;;;;;;5038312;28;20037;-87
2021/03/27 03:25:26;;;;;;;72.88;37.80;;;;;;;;;;5037326;28;20029;-87
2021/03/27 03:27:58;;;;;;;66.63;36.33;;;;;;;;;;5038377;28;20304;-87
2021/03/27 03:30:39;;;;;;;70.70;37.92;;;;;;;;;;5037222;28;20018;-87
2021/03/27 03:33:12;;;;;;;64.50;36.35;;;;;;;;;;5037134;28;20035;-87
2021/03/27 03:36:00;;;;;;;61.08;35.25;;;;;;;;;;5037008;28;20035;-85
2021/03/27 03:38:32;;;;;;;68.55;38.97;;;;;;;;;;5037485;28;20034;-88
2021/03/27 03:41:01;;;;;;;72.70;39.53;;;;;;;;;;5037634;28;20474;-85
2021/03/27 03:43:34;;;;;;;63.30;37.47;;;;;;;;;;5038024;28;20053;-89
2021/03/27 03:46:19;;;;;;;61.10;35.50;;;;;;;;;;5037746;28;20028;-91
2021/03/27 03:49:14;;;;;;;61.80;35.67;;;;;;;;;;5038209;28;20404;-89
2021/03/27 03:52:04;;;;;;;56.20;32.17;;;;;;;;;;5016366;28;20034;-90
2021/03/27 03:54:49;;;;;;;56.15;33.08;;;;;;;;;;5000042;28;20082;-91
2021/03/27 03:57:23;;;;;;;55.13;31.38;;;;;;;;;;5016525;28;20033;-90
2021/03/27 03:59:49;;;;;;;50.83;31.20;;;;;;;;;;5016533;28;20313;-90
2021/03/27 04:02:25;;;;;;;53.08;31.95;;;;;;;;;;4998902;28;20035;-89
2021/03/27 04:05:06;;;;;;;62.00;35.03;;;;;;;;;;4980335;28;20022;-88
2021/03/27 04:07:41;;;;;;;59.65;34.67;;;;;;;;;;4980243;28;20025;-88
2021/03/27 04:10:13;;;;;;;59.42;34.63;;;;;;;;;;4980220;28;20061;-88
2021/03/27 04:12:43;;;;;;;60.90;35.03;;;;;;;;;;5005006;28;20021;-88
2021/03/27 04:15:09;;;;;;;56.75;32.70;;;;;;;;;;4999693;28;20041;-90
2021/03/27 04:17:43;;;;;;;56.35;32.30;;;;;;;;;;5015998;28;20026;-87
2021/03/27 04:20:09;;;;;;;53.80;32.50;;;;;;;;;;5016198;28;20076;-88
2021/03/27 04:28:48;;;;;;;60.10;33.97;;;;;;;;;;5032696;28;20105;-88
2021/03/27 04:31:19;;;;;;;59.28;32.40;;;;;;;;;;5037291;28;20018;-89
2021/03/27 04:34:03;;;;;;;60.15;34.55;;;;;;;;;;5037544;28;20034;-88
2021/03/27 04:36:32;;;;;;;60.63;33.55;;;;;;;;;;5036670;28;20025;-88
2021/03/27 04:39:11;;;;;;;56.50;32.58;;;;;;;;;;5037294;28;20324;-88
2021/03/27 04:41:44;;;;;;;57.13;30.92;;;;;;;;;;5037139;28;20121;-89
2021/03/27 04:44:10;;;;;;;;;;;;;;;;;;5038001;28;20014;-88
2021/03/27 04:46:59;;;;;;;54.53;31.40;;;;;;;;;;5039626;28;19905;-88
2021/03/27 04:49:32;;;;;;;56.53;32.90;;;;;;;;;;5000257;28;20101;-88
2021/03/27 04:52:03;;;;;;;59.50;33.08;;;;;;;;;;5000097;28;20034;-89
2021/03/27 04:54:32;;;;;;;61.03;33.65;;;;;;;;;;5000019;28;20034;-88
2021/03/27 04:57:08;;;;;;;57.53;33.20;;;;;;;;;;5000294;28;20030;-88
2021/03/27 04:59:44;;;;;;;64.82;35.45;;;;;;;;;;4983593;28;20034;-89
2021/03/27 05:02:15;;;;;;;60.63;34.97;;;;;;;;;;4999883;28;20022;-89
2021/03/27 05:04:41;;;;;;;65.45;36.47;;;;;;;;;;4999837;28;20022;-89
2021/03/27 05:07:11;;;;;;;65.68;35.72;;;;;;;;;;4999854;28;20433;-88
2021/03/27 05:09:53;;;;;;;65.65;36.10;;;;;;;;;;4999723;28;20089;-88
2021/03/27 05:12:29;;;;;;;62.15;36.45;;;;;;;;;;4999778;28;20101;-89
2021/03/27 05:15:01;;;;;;;67.03;37.00;;;;;;;;;;4983429;28;20034;-89
2021/03/27 05:17:36;;;;;;;77.35;40.92;;;;;;;;;;4983384;28;20393;-88
2021/03/27 05:20:14;;;;;;;75.68;38.88;;;;;;;;;;4983351;28;20084;-89
2021/03/27 05:22:59;;;;;;;75.00;40.08;;;;;;;;;;4983239;28;20038;-89
2021/03/27 05:25:30;;;;;;;74.97;40.15;;;;;;;;;;5003690;28;20026;-89
2021/03/27 05:28:03;;;;;;;79.25;41.63;;;;;;;;;;5039654;28;20030;-86
2021/03/27 05:30:42;;;;;;;71.65;40.45;;;;;;;;;;5040343;28;20101;-89
2021/03/27 05:33:08;;;;;;;69.82;40.53;;;;;;;;;;5040382;28;20036;-89
2021/03/27 05:35:34;;;;;;;73.25;40.88;;;;;;;;;;5040232;28;20022;-90
2021/03/27 05:38:03;;;;;;;70.10;39.20;;;;;;;;;;5040442;28;20025;-88
2021/03/27 05:40:40;;;;;;;67.05;39.65;;;;;;;;;;5040032;28;20058;-87
2021/03/27 05:43:24;;;;;;;66.53;38.17;;;;;;;;;;5039103;28;20033;-88
2021/03/27 05:45:50;;;;;;;67.45;37.50;;;;;;;;;;5039999;28;20021;-88
2021/03/27 05:48:16;;;;;;;65.28;38.35;;;;;;;;;;5040494;28;20031;-90
2021/03/27 05:50:52;;;;;;;69.43;38.75;;;;;;;;;;5039876;28;20117;-90
2021/03/27 05:53:33;;;;;;;65.43;39.83;;;;;;;;;;5040340;28;20085;-90
2021/03/27 05:56:02;;;;;;;72.10;40.58;;;;;;;;;;5039076;28;20032;-90
2021/03/27 05:58:28;;;;;;;74.63;42.60;;;;;;;;;;5039105;28;20033;-87
2021/03/27 06:00:57;;;;;;;75.88;43.47;;;;;;;;;;5043105;28;20421;-87
2021/03/27 06:03:32;;;;;;;71.85;41.65;;;;;;;;;;5057162;28;20063;-87
2021/03/27 06:06:19;;;;;;;82.65;43.17;;;;;;;;;;5055215;28;20361;-91
2021/03/27 06:11:58;;;;;;;69.75;39.58;;;;;;;;;;5059863;28;20036;-94
2021/03/27 06:14:24;;;;;;;77.22;41.33;;;;;;;;;;5059612;28;20021;-93
2021/03/27 06:16:50;;;;;;;67.38;39.45;;;;;;;;;;5059644;28;20104;-93
2021/03/27 06:19:23;;;;;;;70.60;40.55;;;;;;;;;;5059782;28;20043;-93
2021/03/27 06:22:07;;;;;;;70.78;40.03;;;;;;;;;;5059642;28;20020;-92
2021/03/27 06:27:55;;;;;;;65.72;39.00;;;;;;;;;;5059663;28;20130;-93
2021/03/27 06:30:27;;;;;;;75.82;40.42;;;;;;;;;;5058267;28;20021;-92
2021/03/27 06:33:12;;;;;;;76.83;40.77;;;;;;;;;;5059636;28;20342;-92
2021/03/27 06:35:53;;;;;;;75.72;39.47;;;;;;;;;;5059576;28;20059;-93
2021/03/27 06:38:22;;;;;;;73.45;40.28;;;;;;;;;;5059362;28;20032;-92
2021/03/27 06:40:51;;;;;;;78.53;42.38;;;;;;;;;;5057538;28;20053;-91
2021/03/27 06:43:28;;;;;;;77.65;41.25;;;;;;;;;;5057648;28;20075;-91
2021/03/27 06:45:57;;;;;;;73.05;42.17;;;;;;;;;;5059253;28;20021;-91
2021/03/27 06:48:43;;;;;;;67.55;39.15;;;;;;;;;;5059212;28;20330;-83
2021/03/27 06:51:28;;;;;;;83.43;47.78;;;;;;;;;;4977830;28;20114;-83
2021/03/27 06:53:54;;;;;;;74.82;39.63;;;;;;;;;;4977591;28;20066;-83
2021/03/27 06:56:46;;;;;;;60.97;36.25;;;;;;;;;;4977809;28;20126;-83
2021/03/27 06:59:31;;;;;;;64.05;35.60;;;;;;;;;;4975094;28;20086;-83
2021/03/27 07:02:11;;;;;;;85.78;45.80;;;;;;;;;;4977364;28;20031;-83
2021/03/27 07:04:37;;;;;;;58.42;34.67;;;;;;;;;;4977484;28;20057;-83
2021/03/27 07:07:15;;;;;;;66.35;35.15;;;;;;;;;;4975841;28;20063;-83
2021/03/27 07:10:00;;;;;;;65.55;36.65;;;;;;;;;;4977093;28;20438;-83
2021/03/27 07:12:45;;;;;;;71.38;36.95;;;;;;;;;;4977589;28;20067;-83
2021/03/27 07:15:30;;;;;;;59.60;33.55;;;;;;;;;;4977359;28;20031;-83
2021/03/27 07:18:01;;;;;;;52.08;32.30;;;;;;;;;;4977368;28;20046;-83
2021/03/27 07:20:47;;;;;;;50.42;30.13;;;;;;;;;;4976802;28;20065;-83
2021/03/27 07:23:25;;;;;;;46.90;30.17;;;;;;;;;;4977249;28;20030;-82
2021/03/27 07:25:56;;;;;;;45.63;27.67;;;;;;;;;;4977131;28;20472;-83
2021/03/27 07:28:34;;;;;;;45.20;27.58;;;;;;;;;;5010782;28;20109;-83
2021/03/27 07:31:03;;;;;;;42.20;25.30;;;;;;;;;;5038389;28;20025;-83
2021/03/27 07:33:29;;;;;;;43.15;26.02;;;;;;;;;;5037565;28;20048;-83
2021/03/27 07:36:14;;;;;;;51.65;25.88;;;;;;;;;;5043872;28;20084;-83
2021/03/27 07:38:51;;;;;;;40.88;24.65;;;;;;;;;;5057466;28;20078;-83
2021/03/27 07:41:17;;;;;;;40.50;24.13;;;;;;;;;;5056276;28;20458;-83
2021/03/27 07:43:46;;;;;;;46.55;26.67;;;;;;;;;;5056424;28;20071;-82
2021/03/27 07:46:18;;;;;;;42.53;23.58;;;;;;;;;;5057404;28;20433;-82
2021/03/27 07:49:17;;;;;;;42.72;24.95;;;;;;;;;;5056366;28;20021;-82
2021/03/27 07:51:49;;;;;;;43.08;24.35;;;;;;;;;;5057388;28;20056;-83
2021/03/27 07:54:18;;;;;;;44.45;24.95;;;;;;;;;;5057403;28;20103;-82
2021/03/27 07:57:02;;;;;;;42.47;24.27;;;;;;;;;;5056418;28;20025;-83
2021/03/27 07:59:28;;;;;;;47.80;29.45;;;;;;;;;;5057303;28;20067;-81
2021/03/27 08:01:54;;;;;;;54.42;26.52;;;;;;;;;;5057442;28;20049;-83
2021/03/27 08:04:20;;;;;;;42.75;25.55;;;;;;;;;;5056117;28;20465;-82
2021/03/27 08:06:59;;;;;;;42.00;24.73;;;;;;;;;;5057034;28;20033;-82
2021/03/27 08:09:44;;;;;;;41.65;25.23;;;;;;;;;;5055779;28;20075;-82
2021/03/27 08:12:29;;;;;;;46.58;25.98;;;;;;;;;;5057153;28;20083;-82
2021/03/27 08:14:55;;;;;;;47.55;30.33;;;;;;;;;;5056969;28;20034;-82
2021/03/27 08:17:27;;;;;;;59.25;32.92;;;;;;;;;;5055873;28;20029;-82
2021/03/27 08:20:02;;;;;;;46.00;26.85;;;;;;;;;;5057425;28;20021;-82
2021/03/27 08:22:31;;;;;;;44.17;26.00;;;;;;;;;;5063178;28;20389;-82
2021/03/27 08:25:02;;;;;;;43.60;26.98;;;;;;;;;;5063302;28;20411;-82
2021/03/27 08:27:31;;;;;;;45.65;26.13;;;;;;;;;;5062312;28;20029;-82
2021/03/27 08:30:00;;;;;;;58.00;40.13;;;;;;;;;;5063524;28;20048;-82
2021/03/27 08:32:50;;;;;;;54.20;34.50;;;;;;;;;;5063491;28;20243;-82
2021/03/27 08:35:34;;;;;;;54.63;27.40;;;;;;;;;;4966445;28;20086;-81
2021/03/27 08:38:18;;;;;;;49.15;25.45;;;;;;;;;;4982609;28;20031;-82
2021/03/27 08:40:48;;;;;;;39.08;24.67;;;;;;;;;;4982431;28;20327;-82
2021/03/27 08:43:14;;;;;;;41.70;24.38;;;;;;;;;;4981402;28;20082;-82
2021/03/27 08:45:48;;;;;;;38.10;23.58;;;;;;;;;;4982602;28;20030;-81
2021/03/27 08:48:14;;;;;;;39.05;22.58;;;;;;;;;;4964771;28;20158;-80
2021/03/27 08:50:40;;;;;;;44.92;24.10;;;;;;;;;;4982560;28;20055;-81
2021/03/27 08:53:09;;;;;;;39.05;24.08;;;;;;;;;;4965350;28;20075;-81
2021/03/27 08:55:35;;;;;;;45.15;24.65;;;;;;;;;;4981096;28;20027;-81
2021/03/27 08:58:10;;;;;;;42.75;24.48;;;;;;;;;;4982214;28;20026;-81
2021/03/27 09:00:39;;;;;;;40.22;24.00;;;;;;;;;;4981216;28;20035;-81
2021/03/27 09:03:24;;;;;;;39.20;23.83;;;;;;;;;;4982400;28;20033;-81
2021/03/27 09:06:02;;;;;;;40.75;24.60;;;;;;;;;;4982280;28;20131;-81
2021/03/27 09:08:28;;;;;;;40.95;23.02;;;;;;;;;;4966017;28;20061;-81
2021/03/27 09:11:00;;;;;;;38.25;23.70;;;;;;;;;;4965972;28;20067;-81
2021/03/27 09:13:32;;;;;;;42.00;22.75;;;;;;;;;;5063195;28;20411;-82
2021/03/27 09:16:16;;;;;;;35.47;21.70;;;;;;;;;;5062909;28;20304;-81
2021/03/27 09:19:01;;;;;;;41.67;23.40;;;;;;;;;;5062956;28;20025;-82
2021/03/27 09:21:30;;;;;;;37.90;23.20;;;;;;;;;;5078099;28;20374;-82
2021/03/27 09:23:56;;;;;;;40.85;24.23;;;;;;;;;;5063121;28;20066;-82
2021/03/27 09:26:28;;;;;;;36.00;22.67;;;;;;;;;;5078416;28;20033;-81
2021/03/27 09:28:54;;;;;;;;;;;;;;;;;;5063281;28;20024;-82
2021/03/27 09:31:20;;;;;;;40.63;22.10;;;;;;;;;;5062850;28;19905;-81
2021/03/27 09:34:06;;;;;;;37.15;22.92;;;;;;;;;;5059924;28;20017;-82
2021/03/27 09:36:32;;;;;;;42.83;24.88;;;;;;;;;;5037972;28;20037;-81
2021/03/27 09:38:58;;;;;;;38.20;23.35;;;;;;;;;;5037768;28;20048;-82
2021/03/27 09:41:43;;;;;;;33.78;21.13;;;;;;;;;;5037673;28;20063;-82
2021/03/27 09:44:09;;;;;;;42.60;22.95;;;;;;;;;;5037318;28;20037;-82
2021/03/27 09:46:44;;;;;;;37.40;21.63;;;;;;;;;;5037805;28;20450;-82
2021/03/27 09:49:10;;;;;;;35.92;21.70;;;;;;;;;;5037784;28;20363;-82
2021/03/27 09:51:36;;;;;;;41.22;22.20;;;;;;;;;;5037677;28;20048;-82
2021/03/27 09:54:27;;;;;;;37.45;20.90;;;;;;;;;;5037621;28;20087;-82
2021/03/27 09:57:04;;;;;;;42.60;23.70;;;;;;;;;;5037637;28;20029;-82
2021/03/27 09:59:36;;;;;;;45.88;25.23;;;;;;;;;;5037313;28;20026;-81
2021/03/27 10:02:11;;;;;;;45.95;24.55;;;;;;;;;;5037706;28;20033;-82
2021/03/27 10:04:58;;;;;;;46.60;26.33;;;;;;;;;;5037189;28;20025;-81
2021/03/27 10:07:28;;;;;;;41.08;24.00;;;;;;;;;;5041647;28;20060;-81
2021/03/27 10:10:13;;;;;;;42.55;24.05;;;;;;;;;;5057065;28;20056;-81
2021/03/27 10:12:45;;;;;;;41.90;24.38;;;;;;;;;;5058992;28;20033;-81
2021/03/27 10:15:20;;;;;;;52.40;25.52;;;;;;;;;;5077902;28;20024;-82
2021/03/27 10:17:51;;;;;;;42.80;23.70;;;;;;;;;;5077317;28;20064;-82
2021/03/27 10:20:33;;;;;;;42.95;23.77;;;;;;;;;;5078878;28;20220;-81
2021/03/27 10:23:19;;;;;;;40.83;23.95;;;;;;;;;;5078828;28;20040;-81
2021/03/27 10:26:06;;;;;;;37.55;22.42;;;;;;;;;;5078689;28;20025;-82
2021/03/27 10:28:35;;;;;;;39.95;23.05;;;;;;;;;;5036763;28;20412;-82
2021/03/27 10:31:22;;;;;;;38.28;20.77;;;;;;;;;;5036856;28;20056;-82
2021/03/27 10:34:06;;;;;;;34.85;21.98;;;;;;;;;;5036800;28;20482;-81
2021/03/27 10:36:37;;;;;;;36.08;20.92;;;;;;;;;;5036725;28;20055;-81
2021/03/27 10:39:10;;;;;;;34.42;20.98;;;;;;;;;;5036516;28;20073;-81
2021/03/27 10:41:36;;;;;;;38.83;20.73;;;;;;;;;;5036514;28;20064;-82
2021/03/27 10:44:02;;;;;;;40.55;22.35;;;;;;;;;;5036142;28;20028;-82
2021/03/27 10:46:28;;;;;;;37.42;22.35;;;;;;;;;;5036645;28;20099;-82
2021/03/27 10:48:54;;;;;;;36.67;22.27;;;;;;;;;;5036586;28;20029;-82
2021/03/27 10:51:39;;;;;;;37.25;21.65;;;;;;;;;;5019982;28;20124;-81
2021/03/27 10:54:07;;;;;;;38.22;21.88;;;;;;;;;;5036346;28;20091;-80
2021/03/27 10:56:45;;;;;;;35.15;21.23;;;;;;;;;;5019578;28;20038;-81
2021/03/27 10:59:19;;;;;;;39.88;22.77;;;;;;;;;;5036354;28;20053;-81
2021/03/27 11:01:45;;;;;;;32.53;20.23;;;;;;;;;;5036192;28;20029;-81
2021/03/27 11:04:30;;;;;;;36.80;21.23;;;;;;;;;;5036222;28;20026;-81
2021/03/27 11:07:02;;;;;;;38.85;20.85;;;;;;;;;;5077889;28;20020;-82
2021/03/27 11:09:34;;;;;;;38.15;21.80;;;;;;;;;;5078091;28;20029;-81
2021/03/27 11:12:19;;;;;;;32.40;19.58;;;;;;;;;;5077947;28;20029;-82
2021/03/27 11:14:53;;;;;;;38.22;21.63;;;;;;;;;;5077959;28;20434;-81
2021/03/27 11:17:26;;;;;;;35.58;19.90;;;;;;;;;;5077660;28;20032;-81
2021/03/27 11:20:10;;;;;;;32.67;20.02;;;;;;;;;;5076621;28;20024;-82
2021/03/27 11:22:36;;;;;;;36.50;20.45;;;;;;;;;;5075974;28;20036;-81
2021/03/27 11:25:02;;;;;;;35.92;19.40;;;;;;;;;;5077555;28;20025;-81
2021/03/27 11:27:28;;;;;;;37.53;21.50;;;;;;;;;;5077544;28;20027;-81
2021/03/27 11:30:02;;;;;;;64.72;37.90;;;;;;;;;;5077426;28;20025;-81
2021/03/27 11:32:31;;;;;;;40.95;21.65;;;;;;;;;;5077480;28;20036;-81
2021/03/27 11:35:00;;;;;;;33.08;20.55;;;;;;;;;;5077462;28;20035;-81
2021/03/27 11:37:30;;;;;;;41.05;23.02;;;;;;;;;;5077297;28;20362;-81
2021/03/27 11:40:16;;;;;;;35.08;20.65;;;;;;;;;;5077178;28;20127;-82
2021/03/27 11:42:58;;;;;;;37.42;22.13;;;;;;;;;;5077296;28;20052;-81
2021/03/27 11:45:40;;;;;;;38.80;21.27;;;;;;;;;;5077316;28;20021;-81
2021/03/27 11:48:06;;;;;;;34.92;18.27;;;;;;;;;;5077402;28;20258;-82
2021/03/27 11:50:51;;;;;;;27.45;15.48;;;;;;;;;;5076138;28;20024;-82
2021/03/27 11:53:36;;;;;;;30.10;16.70;;;;;;;;;;5077073;28;20029;-82
2021/03/27 11:56:05;;;;;;;33.67;16.02;;;;;;;;;;5076442;28;20039;-82
2021/03/27 11:58:31;;;;;;;24.08;15.13;;;;;;;;;;5077222;28;20303;-82
2021/03/27 12:01:07;;;;;;;28.95;15.93;;;;;;;;;;5077067;28;20485;-81
2021/03/27 12:03:39;;;;;;;22.92;14.35;;;;;;;;;;5077212;28;20155;-82
2021/03/27 12:06:24;;;;;;;25.85;14.48;;;;;;;;;;5077183;28;20131;-82
2021/03/27 12:08:56;;;;;;;22.55;13.25;;;;;;;;;;5077016;28;20143;-82
2021/03/27 12:11:41;;;;;;;24.55;13.73;;;;;;;;;;5077087;28;20024;-82
2021/03/27 12:14:16;;;;;;;20.88;13.55;;;;;;;;;;5075982;28;20358;-81
2021/03/27 12:16:45;;;;;;;26.73;13.68;;;;;;;;;;5076722;28;20021;-82
2021/03/27 12:19:30;;;;;;;26.85;15.25;;;;;;;;;;5077016;28;20028;-82
2021/03/27 12:21:56;;;;;;;27.98;14.68;;;;;;;;;;5076845;28;20027;-83
2021/03/27 12:24:48;;;;;;;22.65;13.63;;;;;;;;;;5075840;28;20031;-82
2021/03/27 12:27:19;;;;;;;20.27;11.57;;;;;;;;;;5075048;28;20039;-82
2021/03/27 12:29:47;;;;;;;21.52;11.43;;;;;;;;;;5076988;28;20027;-82
2021/03/27 12:32:34;;;;;;;17.40;10.63;;;;;;;;;;5076835;28;20046;-82
2021/03/27 12:35:04;;;;;;;33.90;11.40;;;;;;;;;;5076732;28;20115;-82
2021/03/27 12:37:30;;;;;;;18.75;9.40;;;;;;;;;;5076816;28;20300;-82
2021/03/27 12:40:00;;;;;;;12.30;7.47;;;;;;;;;;5076761;28;20419;-82
2021/03/27 12:42:35;;;;;;;15.13;7.70;;;;;;;;;;5076645;28;20052;-82
2021/03/27 12:45:04;;;;;;;20.35;9.38;;;;;;;;;;5076905;28;20028;-82
2021/03/27 12:47:42;;;;;;;13.70;8.63;;;;;;;;;;5076360;28;20021;-82
2021/03/27 12:50:29;;;;;;;16.42;10.02;;;;;;;;;;5076743;28;20024;-82
2021/03/27 12:52:55;;;;;;;10.20;6.88;;;;;;;;;;5076460;28;20074;-82
2021/03/27 12:55:40;;;;;;;10.23;6.35;;;;;;;;;;5076564;28;20021;-81
2021/03/27 12:58:25;;;;;;;10.82;6.55;;;;;;;;;;5075598;28;20480;-82
2021/03/27 13:00:57;;;;;;;10.88;6.90;;;;;;;;;;5076571;28;20086;-83
2021/03/27 13:03:46;;;;;;;13.82;6.97;;;;;;;;;;5076174;28;20070;-82
2021/03/27 13:06:23;;;;;;;9.20;6.25;;;;;;;;;;5065333;28;20050;-83
2021/03/27 13:09:12;;;;;;;12.32;7.47;;;;;;;;;;5080138;28;20021;-83
2021/03/27 13:11:50;;;;;;;11.75;6.63;;;;;;;;;;5080033;28;20082;-83
2021/03/27 13:14:16;;;;;;;11.15;6.20;;;;;;;;;;5079212;28;20319;-82
2021/03/27 13:16:45;;;;;;;12.07;6.20;;;;;;;;;;5080414;28;20058;-82
2021/03/27 13:19:15;;;;;;;11.95;6.63;;;;;;;;;;5080203;28;20024;-83
2021/03/27 13:21:53;;;;;;;16.52;8.60;;;;;;;;;;5080253;28;20024;-83
2021/03/27 13:24:35;;;;;;;13.65;6.78;;;;;;;;;;5079963;28;20025;-83
2021/03/27 13:27:05;;;;;;;9.85;6.75;;;;;;;;;;5080058;28;20021;-83
2021/03/27 13:29:35;;;;;;;11.77;6.30;;;;;;;;;;5078927;28;20353;-82
2021/03/27 13:32:17;;;;;;;11.02;5.78;;;;;;;;;;5080006;28;20025;-83
2021/03/27 13:34:43;;;;;;;9.53;5.90;;;;;;;;;;5079976;28;20040;-82
2021/03/27 13:37:25;;;;;;;14.93;7.82;;;;;;;;;;5078193;28;20029;-83
2021/03/27 13:39:51;;;;;;;;;;;;;;;;;;5078509;28;20427;-83
2021/03/27 13:42:35;;;;;;;11.80;6.80;;;;;;;;;;5079544;28;19954;-81
2021/03/27 13:45:10;;;;;;;14.43;7.53;;;;;;;;;;5079597;28;20027;-80
2021/03/27 13:47:45;;;;;;;17.60;10.52;;;;;;;;;;5079610;28;20059;-82
2021/03/27 13:50:11;;;;;;;13.82;7.80;;;;;;;;;;5079567;28;20029;-82
2021/03/27 13:52:52;;;;;;;19.00;11.00;;;;;;;;;;5079421;28;20441;-82
2021/03/27 13:55:37;;;;;;;14.10;8.40;;;;;;;;;;5079539;28;20033;-82
2021/03/27 13:58:06;;;;;;;12.25;6.03;;;;;;;;;;5079229;28;20407;-82
2021/03/27 14:00:37;;;;;;;12.32;5.93;;;;;;;;;;5079283;28;20288;-81
2021/03/27 14:03:22;;;;;;;11.85;7.40;;;;;;;;;;5079216;28;20029;-82
2021/03/27 14:05:57;;;;;;;14.68;6.70;;;;;;;;;;5079145;28;20031;-81
2021/03/27 14:08:39;;;;;;;8.68;5.57;;;;;;;;;;5078966;28;20498;-82
2021/03/27 14:11:25;;;;;;;9.63;5.20;;;;;;;;;;5079067;28;20025;-82
2021/03/27 14:13:52;;;;;;;13.63;5.63;;;;;;;;;;5077919;28;20035;-82
2021/03/27 14:16:33;;;;;;;13.60;6.68;;;;;;;;;;5078997;28;20032;-82
2021/03/27 14:19:02;;;;;;;15.68;7.07;;;;;;;;;;5076614;28;20041;-82
2021/03/27 14:21:28;;;;;;;14.32;6.60;;;;;;;;;;5078623;28;20027;-82
2021/03/27 14:24:01;;;;;;;11.40;6.40;;;;;;;;;;5078757;28;20449;-81
2021/03/27 14:27:01;;;;;;;12.60;5.95;;;;;;;;;;5079013;28;20024;-82
2021/03/27 14:29:31;;;;;;;12.05;6.20;;;;;;;;;;5077810;28;20052;-81
2021/03/27 14:32:03;;;;;;;11.55;6.60;;;;;;;;;;5078558;28;20020;-81
2021/03/27 14:34:29;;;;;;;;;;;;;;;;;;5077668;28;20044;-83
2021/03/27 14:36:58;;;;;;;16.50;7.45;;;;;;;;;;5094395;28;19904;-80
2021/03/27 14:39:43;;;;;;;18.27;6.90;;;;;;;;;;5078736;28;20021;-83
2021/03/27 14:42:27;;;;;;;9.70;5.88;;;;;;;;;;5078464;28;20047;-80
2021/03/27 14:44:53;;;;;;;9.18;5.45;;;;;;;;;;5078387;28;20023;-80
2021/03/27 14:47:31;;;;;;;9.15;6.03;;;;;;;;;;5078220;28;20024;-80
2021/03/27 14:50:00;;;;;;;10.98;6.38;;;;;;;;;;5078333;28;20074;-80
2021/03/27 14:52:42;;;;;;;8.82;5.72;;;;;;;;;;5078079;28;20024;-80
2021/03/27 14:55:14;;;;;;;14.75;6.13;;;;;;;;;;5076723;28;20041;-80
2021/03/27 14:58:16;;;;;;;18.67;6.78;;;;;;;;;;5078302;28;20461;-80
2021/03/27 15:01:01;;;;;;;13.60;6.80;;;;;;;;;;5017052;28;20073;-83
2021/03/27 15:03:29;;;;;;;15.32;6.60;;;;;;;;;;5017440;28;20287;-90
2021/03/27 15:06:16;;;;;;;18.52;8.18;;;;;;;;;;5017376;28;20022;-90
2021/03/27 15:08:45;;;;;;;12.48;6.28;;;;;;;;;;5016878;28;20061;-90
2021/03/27 15:11:34;;;;;;;13.13;7.85;;;;;;;;;;5017243;28;20025;-90
2021/03/27 15:14:03;;;;;;;18.90;8.70;;;;;;;;;;5016227;28;20033;-83
2021/03/27 15:16:32;;;;;;;21.05;10.48;;;;;;;;;;5016302;28;20053;-83
2021/03/27 15:19:04;;;;;;;21.90;10.05;;;;;;;;;;5016465;28;20434;-84
2021/03/27 15:21:30;;;;;;;;;;;;;;;;;;5017088;28;20036;-86